sensor_id;sensor_type;location;lat;lon;timestamp;temperature;humidity
8939;DHT22;4504;48.810;9.172;2022-10-31T00:00:34;15.10;99.90
8939;DHT22;4504;48.810;9.172;2022-10-31T00:03:02;15.10;99.90
8939;DHT22;4504;48.810;9.172;2022-10-31T00:05:29;15.00;99.90
8939;DHT22;4504;48.810;9.172;2022-10-31T00:07:56;15.00;99.90
8939;DHT22;4504;48.810;9.172;2022-10-31T00:10:24;15.00;99.90
8939;DHT22;4504;48.810;9.172;2022-10-31T00:12:51;15.00;99.90
8939;DHT22;4504;48.810;9.172;2022-10-31T00:15:18;15.00;99.90
8939;DHT22;4504;48.810;9.172;2022-10-31T00:17:45;15.10;99.90
8939;DHT22;4504;48.810;9.172;2022-10-31T00:20:14;15.50;99.90
8939;DHT22;4504;48.810;9.172;2022-10-31T00:22:41;15.10;99.90
8939;DHT22;4504;48.810;9.172;2022-10-31T00:25:08;15.00;99.90
8939;DHT22;4504;48.810;9.172;2022-10-31T00:27:36;15.00;99.90
8939;DHT22;4504;48.810;9.172;2022-10-31T00:30:04;14.90;99.90
8939;DHT22;4504;48.810;9.172;2022-10-31T00:32:31;14.80;99.90
8939;DHT22;4504;48.810;9.172;2022-10-31T00:34:58;15.20;99.90
8939;DHT22;4504;48.810;9.172;2022-10-31T00:37:27;14.80;99.90
8939;DHT22;4504;48.810;9.172;2022-10-31T00:39:54;14.80;99.90
8939;DHT22;4504;48.810;9.172;2022-10-31T00:42:21;14.60;99.90
8939;DHT22;4504;48.810;9.172;2022-10-31T00:44:48;14.90;99.90
8939;DHT22;4504;48.810;9.172;2022-10-31T00:47:16;15.00;99.90
8939;DHT22;4504;48.810;9.172;2022-10-31T00:49:44;14.70;99.90
8939;DHT22;4504;48.810;9.172;2022-10-31T00:52:11;14.70;99.90
8939;DHT22;4504;48.810;9.172;2022-10-31T00:54:40;14.80;99.90
8939;DHT22;4504;48.810;9.172;2022-10-31T00:57:07;14.70;99.90
8939;DHT22;4504;48.810;9.172;2022-10-31T00:59:34;14.60;99.90
8939;DHT22;4504;48.810;9.172;2022-10-31T01:02:01;14.60;99.90
8939;DHT22;4504;48.810;9.172;2022-10-31T01:04:29;14.60;99.90
8939;DHT22;4504;48.810;9.172;2022-10-31T01:06:56;14.50;99.90
8939;DHT22;4504;48.810;9.172;2022-10-31T01:09:23;14.50;99.90
8939;DHT22;4504;48.810;9.172;2022-10-31T01:11:53;14.50;99.90
8939;DHT22;4504;48.810;9.172;2022-10-31T01:14:22;14.60;99.90
8939;DHT22;4504;48.810;9.172;2022-10-31T01:16:49;14.50;99.90
8939;DHT22;4504;48.810;9.172;2022-10-31T01:19:16;14.60;99.90
8939;DHT22;4504;48.810;9.172;2022-10-31T01:21:46;14.90;99.90
8939;DHT22;4504;48.810;9.172;2022-10-31T01:24:13;14.60;99.90
8939;DHT22;4504;48.810;9.172;2022-10-31T01:26:40;14.40;99.90
8939;DHT22;4504;48.810;9.172;2022-10-31T01:29:10;14.40;99.90
8939;DHT22;4504;48.810;9.172;2022-10-31T01:31:39;14.40;99.90
8939;DHT22;4504;48.810;9.172;2022-10-31T01:34:06;14.30;99.90
8939;DHT22;4504;48.810;9.172;2022-10-31T01:36:37;14.40;99.90
8939;DHT22;4504;48.810;9.172;2022-10-31T01:39:06;14.30;99.90
8939;DHT22;4504;48.810;9.172;2022-10-31T01:41:39;14.30;99.90
8939;DHT22;4504;48.810;9.172;2022-10-31T01:47:14;14.30;99.90
8939;DHT22;4504;48.810;9.172;2022-10-31T01:49:45;14.30;99.90
8939;DHT22;4504;48.810;9.172;2022-10-31T01:52:18;14.30;99.90
8939;DHT22;4504;48.810;9.172;2022-10-31T01:54:48;14.20;99.90
8939;DHT22;4504;48.810;9.172;2022-10-31T01:57:18;14.30;99.90
8939;DHT22;4504;48.810;9.172;2022-10-31T01:59:48;14.20;99.90
8939;DHT22;4504;48.810;9.172;2022-10-31T02:02:18;14.20;99.90
8939;DHT22;4504;48.810;9.172;2022-10-31T02:04:46;14.10;99.90
8939;DHT22;4504;48.810;9.172;2022-10-31T02:07:21;14.10;99.90
8939;DHT22;4504;48.810;9.172;2022-10-31T02:09:51;14.10;99.90
8939;DHT22;4504;48.810;9.172;2022-10-31T02:12:20;14.10;99.90
8939;DHT22;4504;48.810;9.172;2022-10-31T02:14:47;14.20;99.90
8939;DHT22;4504;48.810;9.172;2022-10-31T02:17:14;14.10;99.90
8939;DHT22;4504;48.810;9.172;2022-10-31T02:19:51;14.20;99.90
8939;DHT22;4504;48.810;9.172;2022-10-31T02:22:24;14.00;99.90
8939;DHT22;4504;48.810;9.172;2022-10-31T02:25:02;14.00;99.90
8939;DHT22;4504;48.810;9.172;2022-10-31T02:27:56;14.00;99.90
8939;DHT22;4504;48.810;9.172;2022-10-31T02:30:37;13.90;99.90
8939;DHT22;4504;48.810;9.172;2022-10-31T02:33:18;13.90;99.90
8939;DHT22;4504;48.810;9.172;2022-10-31T02:35:55;14.00;99.90
8939;DHT22;4504;48.810;9.172;2022-10-31T02:38:38;13.90;99.90
8939;DHT22;4504;48.810;9.172;2022-10-31T02:41:18;14.00;99.90
8939;DHT22;4504;48.810;9.172;2022-10-31T02:44:00;13.80;99.90
8939;DHT22;4504;48.810;9.172;2022-10-31T02:46:34;13.80;99.90
8939;DHT22;4504;48.810;9.172;2022-10-31T02:49:09;13.90;99.90
8939;DHT22;4504;48.810;9.172;2022-10-31T02:51:39;13.80;99.90
8939;DHT22;4504;48.810;9.172;2022-10-31T02:54:17;13.80;99.90
8939;DHT22;4504;48.810;9.172;2022-10-31T02:56:44;13.80;99.90
8939;DHT22;4504;48.810;9.172;2022-10-31T02:59:12;13.80;99.90
8939;DHT22;4504;48.810;9.172;2022-10-31T03:01:49;13.80;99.90
8939;DHT22;4504;48.810;9.172;2022-10-31T03:07:21;13.70;99.90
8939;DHT22;4504;48.810;9.172;2022-10-31T03:09:58;13.90;99.90
8939;DHT22;4504;48.810;9.172;2022-10-31T03:12:30;13.60;99.90
8939;DHT22;4504;48.810;9.172;2022-10-31T03:15:07;13.70;99.90
8939;DHT22;4504;48.810;9.172;2022-10-31T03:17:46;13.70;99.90
8939;DHT22;4504;48.810;9.172;2022-10-31T03:20:21;13.70;99.90
8939;DHT22;4504;48.810;9.172;2022-10-31T03:22:52;13.80;99.90
8939;DHT22;4504;48.810;9.172;2022-10-31T03:25:21;13.60;99.90
8939;DHT22;4504;48.810;9.172;2022-10-31T03:27:50;13.60;99.90
8939;DHT22;4504;48.810;9.172;2022-10-31T03:30:18;13.60;99.90
8939;DHT22;4504;48.810;9.172;2022-10-31T03:32:56;13.60;99.90
8939;DHT22;4504;48.810;9.172;2022-10-31T03:35:27;13.60;99.90
8939;DHT22;4504;48.810;9.172;2022-10-31T03:37:55;13.50;99.90
8939;DHT22;4504;48.810;9.172;2022-10-31T03:40:25;13.50;99.90
8939;DHT22;4504;48.810;9.172;2022-10-31T03:42:57;13.50;99.90
8939;DHT22;4504;48.810;9.172;2022-10-31T03:45:28;13.50;99.90
8939;DHT22;4504;48.810;9.172;2022-10-31T03:47:57;13.50;99.90
8939;DHT22;4504;48.810;9.172;2022-10-31T03:50:32;13.60;99.90
8939;DHT22;4504;48.810;9.172;2022-10-31T03:53:06;13.40;99.90
8939;DHT22;4504;48.810;9.172;2022-10-31T03:55:40;13.40;99.90
8939;DHT22;4504;48.810;9.172;2022-10-31T03:58:13;13.50;99.90
8939;DHT22;4504;48.810;9.172;2022-10-31T04:00:46;13.30;99.90
8939;DHT22;4504;48.810;9.172;2022-10-31T04:03:19;13.30;99.90
8939;DHT22;4504;48.810;9.172;2022-10-31T04:05:52;13.50;99.90
8939;DHT22;4504;48.810;9.172;2022-10-31T04:08:24;13.30;99.90
8939;DHT22;4504;48.810;9.172;2022-10-31T04:10:54;13.30;99.90
8939;DHT22;4504;48.810;9.172;2022-10-31T04:13:26;13.40;99.90
8939;DHT22;4504;48.810;9.172;2022-10-31T04:16:02;13.20;99.90
8939;DHT22;4504;48.810;9.172;2022-10-31T04:18:32;13.20;99.90
8939;DHT22;4504;48.810;9.172;2022-10-31T04:21:01;13.20;99.90
8939;DHT22;4504;48.810;9.172;2022-10-31T04:23:29;13.20;99.90
8939;DHT22;4504;48.810;9.172;2022-10-31T04:25:58;13.20;99.90
8939;DHT22;4504;48.810;9.172;2022-10-31T04:28:25;13.20;99.90
8939;DHT22;4504;48.810;9.172;2022-10-31T04:30:52;13.20;99.90
8939;DHT22;4504;48.810;9.172;2022-10-31T04:33:19;13.40;99.90
8939;DHT22;4504;48.810;9.172;2022-10-31T04:35:47;13.30;99.90
8939;DHT22;4504;48.810;9.172;2022-10-31T04:38:16;13.20;99.90
8939;DHT22;4504;48.810;9.172;2022-10-31T04:40:44;13.20;99.90
8939;DHT22;4504;48.810;9.172;2022-10-31T04:43:30;13.20;99.90
8939;DHT22;4504;48.810;9.172;2022-10-31T04:45:59;13.20;99.90
8939;DHT22;4504;48.810;9.172;2022-10-31T04:48:26;13.20;99.90
8939;DHT22;4504;48.810;9.172;2022-10-31T04:50:58;13.20;99.90
8939;DHT22;4504;48.810;9.172;2022-10-31T04:53:27;13.20;99.90
8939;DHT22;4504;48.810;9.172;2022-10-31T04:56:13;13.20;99.90
8939;DHT22;4504;48.810;9.172;2022-10-31T04:58:43;13.10;99.90
8939;DHT22;4504;48.810;9.172;2022-10-31T05:01:12;13.20;99.90
8939;DHT22;4504;48.810;9.172;2022-10-31T05:03:39;13.10;99.90
8939;DHT22;4504;48.810;9.172;2022-10-31T05:06:06;13.00;99.90
8939;DHT22;4504;48.810;9.172;2022-10-31T05:08:35;13.00;99.90
8939;DHT22;4504;48.810;9.172;2022-10-31T05:11:06;13.00;99.90
8939;DHT22;4504;48.810;9.172;2022-10-31T05:13:33;13.00;99.90
8939;DHT22;4504;48.810;9.172;2022-10-31T05:16:26;13.10;99.90
8939;DHT22;4504;48.810;9.172;2022-10-31T05:19:12;13.00;99.90
8939;DHT22;4504;48.810;9.172;2022-10-31T05:21:39;13.00;99.90
8939;DHT22;4504;48.810;9.172;2022-10-31T05:24:09;12.90;99.90
8939;DHT22;4504;48.810;9.172;2022-10-31T05:26:38;13.00;99.90
8939;DHT22;4504;48.810;9.172;2022-10-31T05:29:08;12.90;99.90
8939;DHT22;4504;48.810;9.172;2022-10-31T05:31:35;13.00;99.90
8939;DHT22;4504;48.810;9.172;2022-10-31T05:34:05;12.90;99.90
8939;DHT22;4504;48.810;9.172;2022-10-31T05:37:01;12.90;99.90
8939;DHT22;4504;48.810;9.172;2022-10-31T05:39:30;13.60;99.90
8939;DHT22;4504;48.810;9.172;2022-10-31T05:42:02;12.90;99.90
8939;DHT22;4504;48.810;9.172;2022-10-31T05:44:30;12.80;99.90
8939;DHT22;4504;48.810;9.172;2022-10-31T05:47:11;12.80;99.90
8939;DHT22;4504;48.810;9.172;2022-10-31T05:49:59;12.80;99.90
8939;DHT22;4504;48.810;9.172;2022-10-31T05:52:44;12.70;99.90
8939;DHT22;4504;48.810;9.172;2022-10-31T05:55:26;12.70;99.90
8939;DHT22;4504;48.810;9.172;2022-10-31T05:58:03;12.70;99.90
8939;DHT22;4504;48.810;9.172;2022-10-31T06:00:31;12.60;99.90
8939;DHT22;4504;48.810;9.172;2022-10-31T06:03:07;12.60;99.90
8939;DHT22;4504;48.810;9.172;2022-10-31T06:06:00;12.60;99.90
8939;DHT22;4504;48.810;9.172;2022-10-31T06:08:35;12.50;99.90
8939;DHT22;4504;48.810;9.172;2022-10-31T06:11:07;12.50;99.90
8939;DHT22;4504;48.810;9.172;2022-10-31T06:13:53;12.70;99.90
8939;DHT22;4504;48.810;9.172;2022-10-31T06:16:28;12.60;99.90
8939;DHT22;4504;48.810;9.172;2022-10-31T06:19:00;12.40;99.90
8939;DHT22;4504;48.810;9.172;2022-10-31T06:21:27;12.50;99.90
8939;DHT22;4504;48.810;9.172;2022-10-31T06:23:54;12.50;99.90
8939;DHT22;4504;48.810;9.172;2022-10-31T06:26:45;12.40;99.90
8939;DHT22;4504;48.810;9.172;2022-10-31T06:29:12;12.50;99.90
8939;DHT22;4504;48.810;9.172;2022-10-31T06:31:55;12.60;99.90
8939;DHT22;4504;48.810;9.172;2022-10-31T06:34:22;12.50;99.90
8939;DHT22;4504;48.810;9.172;2022-10-31T06:36:49;12.50;99.90
8939;DHT22;4504;48.810;9.172;2022-10-31T06:39:20;12.50;99.90
8939;DHT22;4504;48.810;9.172;2022-10-31T06:41:48;12.50;99.90
8939;DHT22;4504;48.810;9.172;2022-10-31T06:44:19;12.50;99.90
8939;DHT22;4504;48.810;9.172;2022-10-31T06:46:55;12.50;99.90
8939;DHT22;4504;48.810;9.172;2022-10-31T06:49:45;12.50;99.90
8939;DHT22;4504;48.810;9.172;2022-10-31T06:52:14;12.50;99.90
8939;DHT22;4504;48.810;9.172;2022-10-31T06:54:42;12.50;99.90
8939;DHT22;4504;48.810;9.172;2022-10-31T06:57:10;12.50;99.90
8939;DHT22;4504;48.810;9.172;2022-10-31T06:59:38;12.50;99.90
8939;DHT22;4504;48.810;9.172;2022-10-31T07:02:09;12.50;99.90
8939;DHT22;4504;48.810;9.172;2022-10-31T07:04:37;12.50;99.90
8939;DHT22;4504;48.810;9.172;2022-10-31T07:07:04;12.60;99.90
8939;DHT22;4504;48.810;9.172;2022-10-31T07:09:32;12.60;99.90
8939;DHT22;4504;48.810;9.172;2022-10-31T07:12:02;12.60;99.90
8939;DHT22;4504;48.810;9.172;2022-10-31T07:14:33;12.60;99.90
8939;DHT22;4504;48.810;9.172;2022-10-31T07:17:01;12.60;99.90
8939;DHT22;4504;48.810;9.172;2022-10-31T07:19:33;12.60;99.90
8939;DHT22;4504;48.810;9.172;2022-10-31T07:22:00;12.60;99.90
8939;DHT22;4504;48.810;9.172;2022-10-31T07:24:28;12.60;99.90
8939;DHT22;4504;48.810;9.172;2022-10-31T07:27:18;12.60;99.90
8939;DHT22;4504;48.810;9.172;2022-10-31T07:29:49;12.70;99.90
8939;DHT22;4504;48.810;9.172;2022-10-31T07:32:16;12.70;99.90
8939;DHT22;4504;48.810;9.172;2022-10-31T07:34:51;12.60;99.90
8939;DHT22;4504;48.810;9.172;2022-10-31T07:37:21;12.60;99.90
8939;DHT22;4504;48.810;9.172;2022-10-31T07:39:48;12.60;99.90
8939;DHT22;4504;48.810;9.172;2022-10-31T07:42:15;13.00;99.90
8939;DHT22;4504;48.810;9.172;2022-10-31T07:44:44;12.90;99.90
8939;DHT22;4504;48.810;9.172;2022-10-31T07:47:37;12.70;99.90
8939;DHT22;4504;48.810;9.172;2022-10-31T07:50:25;12.70;99.90
8939;DHT22;4504;48.810;9.172;2022-10-31T07:53:21;12.60;99.90
8939;DHT22;4504;48.810;9.172;2022-10-31T07:56:08;12.70;99.90
8939;DHT22;4504;48.810;9.172;2022-10-31T07:58:35;12.70;99.90
8939;DHT22;4504;48.810;9.172;2022-10-31T08:01:02;12.90;99.90
8939;DHT22;4504;48.810;9.172;2022-10-31T08:03:40;12.80;99.90
8939;DHT22;4504;48.810;9.172;2022-10-31T08:06:25;12.80;99.90
8939;DHT22;4504;48.810;9.172;2022-10-31T08:09:10;12.80;99.90
8939;DHT22;4504;48.810;9.172;2022-10-31T08:11:38;12.80;99.90
8939;DHT22;4504;48.810;9.172;2022-10-31T08:14:06;12.80;99.90
8939;DHT22;4504;48.810;9.172;2022-10-31T08:16:33;12.90;99.90
8939;DHT22;4504;48.810;9.172;2022-10-31T08:19:04;12.90;99.90
8939;DHT22;4504;48.810;9.172;2022-10-31T08:21:36;12.90;99.90
8939;DHT22;4504;48.810;9.172;2022-10-31T08:24:05;12.90;99.90
8939;DHT22;4504;48.810;9.172;2022-10-31T08:26:34;13.00;99.90
8939;DHT22;4504;48.810;9.172;2022-10-31T08:29:02;13.00;99.90
8939;DHT22;4504;48.810;9.172;2022-10-31T08:31:32;13.00;99.90
8939;DHT22;4504;48.810;9.172;2022-10-31T08:34:19;13.00;99.90
8939;DHT22;4504;48.810;9.172;2022-10-31T08:37:05;13.10;99.90
8939;DHT22;4504;48.810;9.172;2022-10-31T08:39:39;13.10;99.90
8939;DHT22;4504;48.810;9.172;2022-10-31T08:42:06;13.10;99.90
8939;DHT22;4504;48.810;9.172;2022-10-31T08:44:33;13.10;99.90
8939;DHT22;4504;48.810;9.172;2022-10-31T08:47:00;13.20;99.90
8939;DHT22;4504;48.810;9.172;2022-10-31T08:49:32;13.20;99.90
8939;DHT22;4504;48.810;9.172;2022-10-31T08:51:59;13.20;99.90
8939;DHT22;4504;48.810;9.172;2022-10-31T08:54:32;13.30;99.90
8939;DHT22;4504;48.810;9.172;2022-10-31T08:57:18;13.30;99.90
8939;DHT22;4504;48.810;9.172;2022-10-31T08:59:46;13.30;99.90
8939;DHT22;4504;48.810;9.172;2022-10-31T09:02:13;13.40;99.90
8939;DHT22;4504;48.810;9.172;2022-10-31T09:04:42;13.40;99.90
8939;DHT22;4504;48.810;9.172;2022-10-31T09:07:10;13.20;99.90
8939;DHT22;4504;48.810;9.172;2022-10-31T09:09:37;13.40;99.90
8939;DHT22;4504;48.810;9.172;2022-10-31T09:12:05;13.50;99.90
8939;DHT22;4504;48.810;9.172;2022-10-31T09:15:08;13.50;99.90
8939;DHT22;4504;48.810;9.172;2022-10-31T09:17:48;13.50;99.90
8939;DHT22;4504;48.810;9.172;2022-10-31T09:20:30;13.60;99.90
8939;DHT22;4504;48.810;9.172;2022-10-31T09:22:59;13.60;99.90
8939;DHT22;4504;48.810;9.172;2022-10-31T09:25:28;13.60;99.90
8939;DHT22;4504;48.810;9.172;2022-10-31T09:28:16;13.60;99.90
8939;DHT22;4504;48.810;9.172;2022-10-31T09:30:46;13.70;99.90
8939;DHT22;4504;48.810;9.172;2022-10-31T09:33:18;13.70;99.90
8939;DHT22;4504;48.810;9.172;2022-10-31T09:35:59;13.80;99.90
8939;DHT22;4504;48.810;9.172;2022-10-31T09:38:45;13.80;99.90
8939;DHT22;4504;48.810;9.172;2022-10-31T09:41:21;13.80;99.90
8939;DHT22;4504;48.810;9.172;2022-10-31T09:43:57;13.90;99.90
8939;DHT22;4504;48.810;9.172;2022-10-31T09:46:31;14.00;99.90
8939;DHT22;4504;48.810;9.172;2022-10-31T09:49:23;13.90;99.90
8939;DHT22;4504;48.810;9.172;2022-10-31T09:51:55;14.00;99.90
8939;DHT22;4504;48.810;9.172;2022-10-31T09:54:32;14.00;99.90
8939;DHT22;4504;48.810;9.172;2022-10-31T09:57:01;14.00;99.90
8939;DHT22;4504;48.810;9.172;2022-10-31T09:59:35;14.10;99.90
8939;DHT22;4504;48.810;9.172;2022-10-31T10:02:04;14.10;99.90
8939;DHT22;4504;48.810;9.172;2022-10-31T10:04:41;14.10;99.90
8939;DHT22;4504;48.810;9.172;2022-10-31T10:07:25;14.20;99.90
8939;DHT22;4504;48.810;9.172;2022-10-31T10:10:38;14.20;99.90
8939;DHT22;4504;48.810;9.172;2022-10-31T10:13:55;14.40;99.90
8939;DHT22;4504;48.810;9.172;2022-10-31T10:16:40;14.30;99.90
8939;DHT22;4504;48.810;9.172;2022-10-31T10:19:30;14.30;99.90
8939;DHT22;4504;48.810;9.172;2022-10-31T10:22:09;14.40;99.90
8939;DHT22;4504;48.810;9.172;2022-10-31T10:24:54;14.40;99.90
8939;DHT22;4504;48.810;9.172;2022-10-31T10:27:29;14.40;99.90
8939;DHT22;4504;48.810;9.172;2022-10-31T10:30:02;14.50;99.90
8939;DHT22;4504;48.810;9.172;2022-10-31T10:32:37;14.50;99.90
8939;DHT22;4504;48.810;9.172;2022-10-31T10:35:17;14.70;99.90
8939;DHT22;4504;48.810;9.172;2022-10-31T10:37:46;14.60;99.90
8939;DHT22;4504;48.810;9.172;2022-10-31T10:40:19;14.60;99.90
8939;DHT22;4504;48.810;9.172;2022-10-31T10:42:55;14.70;99.90
8939;DHT22;4504;48.810;9.172;2022-10-31T10:45:46;14.70;99.90
8939;DHT22;4504;48.810;9.172;2022-10-31T10:48:41;14.80;99.90
8939;DHT22;4504;48.810;9.172;2022-10-31T10:51:20;14.90;99.90
8939;DHT22;4504;48.810;9.172;2022-10-31T10:54:00;14.90;99.90
8939;DHT22;4504;48.810;9.172;2022-10-31T10:56:49;15.10;99.90
8939;DHT22;4504;48.810;9.172;2022-10-31T10:59:20;15.10;99.90
8939;DHT22;4504;48.810;9.172;2022-10-31T11:01:53;15.00;99.90
8939;DHT22;4504;48.810;9.172;2022-10-31T11:04:30;14.90;99.90
8939;DHT22;4504;48.810;9.172;2022-10-31T11:07:03;15.10;99.90
8939;DHT22;4504;48.810;9.172;2022-10-31T11:09:31;15.30;99.90
8939;DHT22;4504;48.810;9.172;2022-10-31T11:12:00;15.20;99.90
8939;DHT22;4504;48.810;9.172;2022-10-31T11:14:35;15.30;99.90
8939;DHT22;4504;48.810;9.172;2022-10-31T11:17:10;15.20;99.90
8939;DHT22;4504;48.810;9.172;2022-10-31T11:19:38;15.40;99.90
8939;DHT22;4504;48.810;9.172;2022-10-31T11:22:14;15.30;99.90
8939;DHT22;4504;48.810;9.172;2022-10-31T11:24:43;15.40;99.90
8939;DHT22;4504;48.810;9.172;2022-10-31T11:27:16;15.40;99.90
8939;DHT22;4504;48.810;9.172;2022-10-31T11:29:44;15.40;99.90
8939;DHT22;4504;48.810;9.172;2022-10-31T11:32:20;15.50;99.90
8939;DHT22;4504;48.810;9.172;2022-10-31T11:34:50;15.60;99.90
8939;DHT22;4504;48.810;9.172;2022-10-31T11:37:21;15.60;99.90
8939;DHT22;4504;48.810;9.172;2022-10-31T11:39:50;15.60;99.90
8939;DHT22;4504;48.810;9.172;2022-10-31T11:42:23;15.70;99.90
8939;DHT22;4504;48.810;9.172;2022-10-31T11:44:53;15.70;99.90
8939;DHT22;4504;48.810;9.172;2022-10-31T11:47:25;16.10;99.90
8939;DHT22;4504;48.810;9.172;2022-10-31T11:49:52;15.90;99.90
8939;DHT22;4504;48.810;9.172;2022-10-31T11:52:23;15.90;99.90
8939;DHT22;4504;48.810;9.172;2022-10-31T11:54:54;15.90;99.90
8939;DHT22;4504;48.810;9.172;2022-10-31T11:57:27;16.00;99.90
8939;DHT22;4504;48.810;9.172;2022-10-31T11:59:57;16.00;99.90
8939;DHT22;4504;48.810;9.172;2022-10-31T12:02:24;16.00;99.90
8939;DHT22;4504;48.810;9.172;2022-10-31T12:04:58;16.10;99.90
8939;DHT22;4504;48.810;9.172;2022-10-31T12:07:26;16.10;99.90
8939;DHT22;4504;48.810;9.172;2022-10-31T12:09:53;16.30;99.90
8939;DHT22;4504;48.810;9.172;2022-10-31T12:12:35;16.20;99.90
8939;DHT22;4504;48.810;9.172;2022-10-31T12:15:25;16.30;99.90
8939;DHT22;4504;48.810;9.172;2022-10-31T12:18:05;16.30;99.90
8939;DHT22;4504;48.810;9.172;2022-10-31T12:20:45;16.30;99.90
8939;DHT22;4504;48.810;9.172;2022-10-31T12:23:19;16.40;99.90
8939;DHT22;4504;48.810;9.172;2022-10-31T12:25:59;16.40;99.90
8939;DHT22;4504;48.810;9.172;2022-10-31T12:28:53;16.50;99.90
8939;DHT22;4504;48.810;9.172;2022-10-31T12:31:39;16.50;99.90
8939;DHT22;4504;48.810;9.172;2022-10-31T12:34:35;16.60;99.90
8939;DHT22;4504;48.810;9.172;2022-10-31T12:37:13;16.70;99.90
8939;DHT22;4504;48.810;9.172;2022-10-31T12:39:49;16.70;99.90
8939;DHT22;4504;48.810;9.172;2022-10-31T12:42:27;16.80;99.90
8939;DHT22;4504;48.810;9.172;2022-10-31T12:45:12;16.80;99.90
8939;DHT22;4504;48.810;9.172;2022-10-31T12:48:04;16.90;99.90
8939;DHT22;4504;48.810;9.172;2022-10-31T12:50:50;16.90;99.90
8939;DHT22;4504;48.810;9.172;2022-10-31T12:53:37;16.90;99.90
8939;DHT22;4504;48.810;9.172;2022-10-31T12:56:18;16.90;99.90
8939;DHT22;4504;48.810;9.172;2022-10-31T12:58:51;16.90;99.90
8939;DHT22;4504;48.810;9.172;2022-10-31T13:01:23;16.90;99.90
8939;DHT22;4504;48.810;9.172;2022-10-31T13:03:58;16.90;99.90
8939;DHT22;4504;48.810;9.172;2022-10-31T13:06:31;16.90;99.90
8939;DHT22;4504;48.810;9.172;2022-10-31T13:09:00;16.90;99.90
8939;DHT22;4504;48.810;9.172;2022-10-31T13:11:32;17.00;99.90
8939;DHT22;4504;48.810;9.172;2022-10-31T13:14:04;17.00;99.90
8939;DHT22;4504;48.810;9.172;2022-10-31T13:16:36;17.00;99.90
8939;DHT22;4504;48.810;9.172;2022-10-31T13:19:10;17.00;99.90
8939;DHT22;4504;48.810;9.172;2022-10-31T13:21:53;17.00;99.90
8939;DHT22;4504;48.810;9.172;2022-10-31T13:24:25;17.00;99.90
8939;DHT22;4504;48.810;9.172;2022-10-31T13:26:56;17.00;99.90
8939;DHT22;4504;48.810;9.172;2022-10-31T13:29:27;17.00;99.90
8939;DHT22;4504;48.810;9.172;2022-10-31T13:31:56;17.00;99.90
8939;DHT22;4504;48.810;9.172;2022-10-31T13:34:28;17.00;99.90
8939;DHT22;4504;48.810;9.172;2022-10-31T13:37:01;16.80;99.90
8939;DHT22;4504;48.810;9.172;2022-10-31T13:39:42;17.00;99.90
8939;DHT22;4504;48.810;9.172;2022-10-31T13:42:15;17.00;99.90
8939;DHT22;4504;48.810;9.172;2022-10-31T13:44:45;17.20;99.90
8939;DHT22;4504;48.810;9.172;2022-10-31T13:47:25;17.10;99.90
8939;DHT22;4504;48.810;9.172;2022-10-31T13:50:04;17.20;99.90
8939;DHT22;4504;48.810;9.172;2022-10-31T13:52:31;17.30;99.90
8939;DHT22;4504;48.810;9.172;2022-10-31T13:54:58;17.30;99.90
8939;DHT22;4504;48.810;9.172;2022-10-31T13:57:34;17.40;99.90
8939;DHT22;4504;48.810;9.172;2022-10-31T14:00:12;17.40;99.90
8939;DHT22;4504;48.810;9.172;2022-10-31T14:02:52;17.40;99.90
8939;DHT22;4504;48.810;9.172;2022-10-31T14:05:23;17.50;99.90
8939;DHT22;4504;48.810;9.172;2022-10-31T14:10:24;17.50;99.90
8939;DHT22;4504;48.810;9.172;2022-10-31T14:12:53;17.50;99.90
8939;DHT22;4504;48.810;9.172;2022-10-31T14:15:23;17.50;99.90
8939;DHT22;4504;48.810;9.172;2022-10-31T14:17:55;17.50;99.90
8939;DHT22;4504;48.810;9.172;2022-10-31T14:20:38;17.50;99.90
8939;DHT22;4504;48.810;9.172;2022-10-31T14:25:53;17.60;99.90
8939;DHT22;4504;48.810;9.172;2022-10-31T14:28:21;17.60;99.90
8939;DHT22;4504;48.810;9.172;2022-10-31T14:30:53;17.60;99.90
8939;DHT22;4504;48.810;9.172;2022-10-31T14:33:23;17.60;99.90
8939;DHT22;4504;48.810;9.172;2022-10-31T14:35:58;17.60;99.90
8939;DHT22;4504;48.810;9.172;2022-10-31T14:38:41;17.60;99.90
8939;DHT22;4504;48.810;9.172;2022-10-31T14:41:31;17.60;99.90
8939;DHT22;4504;48.810;9.172;2022-10-31T14:44:43;17.60;99.90
8939;DHT22;4504;48.810;9.172;2022-10-31T14:47:22;17.60;99.90
8939;DHT22;4504;48.810;9.172;2022-10-31T14:50:23;17.60;99.90
8939;DHT22;4504;48.810;9.172;2022-10-31T14:52:53;17.50;99.90
8939;DHT22;4504;48.810;9.172;2022-10-31T14:55:22;17.50;99.90
8939;DHT22;4504;48.810;9.172;2022-10-31T14:57:52;17.50;99.90
8939;DHT22;4504;48.810;9.172;2022-10-31T15:00:22;17.50;99.90
8939;DHT22;4504;48.810;9.172;2022-10-31T15:02:59;17.50;99.90
8939;DHT22;4504;48.810;9.172;2022-10-31T15:05:29;17.50;99.90
8939;DHT22;4504;48.810;9.172;2022-10-31T15:07:58;17.50;99.90
8939;DHT22;4504;48.810;9.172;2022-10-31T15:10:27;17.50;99.90
8939;DHT22;4504;48.810;9.172;2022-10-31T15:12:55;17.50;99.90
8939;DHT22;4504;48.810;9.172;2022-10-31T15:15:24;17.50;99.90
8939;DHT22;4504;48.810;9.172;2022-10-31T15:17:53;17.40;99.90
8939;DHT22;4504;48.810;9.172;2022-10-31T15:20:24;17.40;99.90
8939;DHT22;4504;48.810;9.172;2022-10-31T15:22:55;17.40;99.90
8939;DHT22;4504;48.810;9.172;2022-10-31T15:25:24;17.40;99.90
8939;DHT22;4504;48.810;9.172;2022-10-31T15:27:52;17.40;99.90
8939;DHT22;4504;48.810;9.172;2022-10-31T15:30:21;17.40;99.90
8939;DHT22;4504;48.810;9.172;2022-10-31T15:32:49;17.30;99.90
8939;DHT22;4504;48.810;9.172;2022-10-31T15:35:22;17.30;99.90
8939;DHT22;4504;48.810;9.172;2022-10-31T15:37:51;17.20;99.90
8939;DHT22;4504;48.810;9.172;2022-10-31T15:40:22;17.20;99.90
8939;DHT22;4504;48.810;9.172;2022-10-31T15:42:52;17.20;99.90
8939;DHT22;4504;48.810;9.172;2022-10-31T15:45:23;17.20;99.90
8939;DHT22;4504;48.810;9.172;2022-10-31T15:47:55;17.10;99.90
8939;DHT22;4504;48.810;9.172;2022-10-31T15:50:31;17.10;99.90
8939;DHT22;4504;48.810;9.172;2022-10-31T15:52:59;17.00;99.90
8939;DHT22;4504;48.810;9.172;2022-10-31T15:55:31;17.00;99.90
8939;DHT22;4504;48.810;9.172;2022-10-31T15:58:00;17.00;99.90
8939;DHT22;4504;48.810;9.172;2022-10-31T16:00:32;17.00;99.90
8939;DHT22;4504;48.810;9.172;2022-10-31T16:03:06;16.90;99.90
8939;DHT22;4504;48.810;9.172;2022-10-31T16:05:37;17.00;99.90
8939;DHT22;4504;48.810;9.172;2022-10-31T16:08:19;16.90;99.90
8939;DHT22;4504;48.810;9.172;2022-10-31T16:10:50;16.90;99.90
8939;DHT22;4504;48.810;9.172;2022-10-31T16:13:18;16.90;99.90
8939;DHT22;4504;48.810;9.172;2022-10-31T16:15:48;16.80;99.90
8939;DHT22;4504;48.810;9.172;2022-10-31T16:18:16;16.80;99.90
8939;DHT22;4504;48.810;9.172;2022-10-31T16:20:48;16.80;99.90
8939;DHT22;4504;48.810;9.172;2022-10-31T16:23:19;16.70;99.90
8939;DHT22;4504;48.810;9.172;2022-10-31T16:25:49;16.70;99.90
8939;DHT22;4504;48.810;9.172;2022-10-31T16:28:18;16.70;99.90
8939;DHT22;4504;48.810;9.172;2022-10-31T16:30:49;16.60;99.90
8939;DHT22;4504;48.810;9.172;2022-10-31T16:33:24;16.60;99.90
8939;DHT22;4504;48.810;9.172;2022-10-31T16:35:52;16.60;99.90
8939;DHT22;4504;48.810;9.172;2022-10-31T16:38:19;16.60;99.90
8939;DHT22;4504;48.810;9.172;2022-10-31T16:40:48;16.50;99.90
8939;DHT22;4504;48.810;9.172;2022-10-31T16:43:18;16.70;99.90
8939;DHT22;4504;48.810;9.172;2022-10-31T16:45:48;16.50;99.90
8939;DHT22;4504;48.810;9.172;2022-10-31T16:48:17;16.40;99.90
8939;DHT22;4504;48.810;9.172;2022-10-31T16:50:45;16.40;99.90
8939;DHT22;4504;48.810;9.172;2022-10-31T16:53:13;16.40;99.90